Hlavní strana
METAR-TAF:

METAR-TAF

Letiště :

Ropná věž

Norne Fpso, Norsko

zeměpisná šířka: 66-01-48N, zeměpisná délka: 008-04-48E, výška: 10 m

Aktuální stav počasí

Zpráva byla vytvořena před 12 minutami, v 21:50 UTC
Západojihozápadní vítr 33 kt
Teplota 7°C
Vlhkost vzduchu 76%
Tlak 1013 hPa
Viditelnost 10 km a více
slabé dešťové přeháňky

METAR: ENNE 282150Z AUTO 24033KT 9999NDV -SHRA FEW019/// 07/03 Q1013 W///S6

Čas: 23:02 (22:02 UTC)

Předpověď počasí

Zpráva byla vytvořena před 8 hodinami a 2 minutami, v 14:00 UTC
Předpověď platná od 28 v 15 UTC do 28 v 18 UTC
Jihozápadní vítr 40 kt
Viditelnost: 1200 m
Oblačno až skoro zataženo ve výšce 300 ft
slabé mrholení, kouřmo
Změna
od 28 v 15 UTC do 28 v 18 UTC
Viditelnost 10 km a více
Polojasno ve výšce 1500 ft

TAF: ENNE 281400Z 2815/2818 23040KT 1200 -DZ BR BKN003 BECMG 2815/2818 9999 SCT015

Stav a předpovědi počasí z více než 4 000 letišť (zprávy METAR a TAF).

Červené a žluté tečky na mapě představují dostupné meteorologické stanice.

Když kurzor umístíte na tečku, zobrazí se název stanice.

Pak kliknutím zobrazíte stav a předpověď počasí.

Chcete-li změnit mapu, kliknutím na zelené tlačítko se znaménkem +mapu přiblížíte, kliknutím na zelené tlačítko se znaménkem – mapu oddálíte a kliknutím na zelené šipky přejdete na sousední mapy.


METAR-TAF: